Time;durP1;ratioP1;P1;durP2;ratioP2;P2;SDS_P1;SDS_P2;PMS_P1;PMS_P2;Temp;Humidity;BMP_temperature;BMP_pressure;BME280_temperature;BME280_humidity;BME280_pressure;Samples;Min_cycle;Max_cycle;Signal;HPM_P1;HPM_P2
2021/06/04 03:19:19;;;;;;;0.30;0.30;;;17.80;99.90;;;;;;5176587;27;20515;-84
2021/06/04 03:21:48;;;;;;;0.20;0.20;;;17.70;99.90;;;;;;5155273;27;20451;-83
2021/06/04 03:24:18;;;;;;;0.30;0.30;;;17.90;99.90;;;;;;5140022;28;20440;-82
2021/06/04 03:26:46;;;;;;;0.20;0.20;;;18.00;99.90;;;;;;5136551;28;20826;-81
2021/06/04 03:29:15;;;;;;;0.30;0.30;;;18.10;99.90;;;;;;5133144;28;20539;-81
2021/06/04 03:31:43;;;;;;;0.20;0.20;;;18.10;99.90;;;;;;5132788;27;20481;-80
2021/06/04 03:34:10;;;;;;;0.30;0.30;;;18.20;99.90;;;;;;5132384;28;20438;-80
2021/06/04 03:36:41;;;;;;;0.20;0.20;;;18.20;99.90;;;;;;5132157;28;20434;-82
2021/06/04 03:39:11;;;;;;;0.30;0.30;;;18.30;99.90;;;;;;5131455;28;20465;-81
2021/06/04 03:41:40;;;;;;;0.20;0.20;;;18.20;99.90;;;;;;5131711;27;20445;-81
2021/06/04 03:44:09;;;;;;;0.20;0.20;;;18.20;99.90;;;;;;5132306;28;20446;-81
2021/06/04 03:46:36;;;;;;;0.20;0.20;;;18.30;99.90;;;;;;5131515;28;20445;-82
2021/06/04 03:49:02;;;;;;;0.23;0.23;;;18.20;99.90;;;;;;5131512;27;20539;-82
2021/06/04 03:51:32;;;;;;;0.20;0.20;;;18.30;99.90;;;;;;5131525;27;20804;-81
2021/06/04 03:53:59;;;;;;;0.20;0.20;;;18.30;99.90;;;;;;5130861;28;20961;-81
2021/06/04 03:56:28;;;;;;;0.30;0.30;;;18.30;99.90;;;;;;5130425;28;20459;-81
2021/06/04 03:58:57;;;;;;;0.20;0.20;;;18.30;99.90;;;;;;5131592;28;20471;-80
2021/06/04 04:01:27;;;;;;;0.30;0.30;;;18.30;99.90;;;;;;5130863;27;20499;-80
2021/06/04 04:03:54;;;;;;;0.20;0.20;;;18.30;99.90;;;;;;5131302;28;20450;-80
2021/06/04 04:06:20;;;;;;;0.20;0.20;;;18.30;99.90;;;;;;5131145;28;20498;-79
2021/06/04 04:08:46;;;;;;;0.30;0.30;;;18.30;99.90;;;;;;5130644;28;20444;-81
2021/06/04 04:11:14;;;;;;;0.20;0.20;;;18.30;99.90;;;;;;5130884;28;20452;-82
2021/06/04 04:13:40;;;;;;;0.20;0.20;;;18.30;99.90;;;;;;5131169;27;20441;-80
2021/06/04 04:16:07;;;;;;;0.30;0.30;;;18.40;99.90;;;;;;5130377;28;20445;-81
2021/06/04 04:18:33;;;;;;;0.30;0.30;;;18.30;99.90;;;;;;5130161;27;20468;-81
2021/06/04 04:21:04;;;;;;;0.23;0.23;;;18.30;99.90;;;;;;5131157;28;20447;-80
2021/06/04 04:23:34;;;;;;;0.20;0.20;;;18.30;99.90;;;;;;5130596;28;20456;-80
2021/06/04 04:26:01;;;;;;;0.23;0.23;;;18.30;99.90;;;;;;5130848;28;20428;-82
2021/06/04 04:28:32;;;;;;;0.30;0.30;;;18.40;99.90;;;;;;5129707;28;20524;-80
2021/06/04 04:30:59;;;;;;;0.30;0.30;;;18.40;99.90;;;;;;5117152;28;20422;-81
2021/06/04 04:33:26;;;;;;;0.20;0.20;;;18.50;99.90;;;;;;5117334;28;20468;-79
2021/06/04 04:35:53;;;;;;;0.30;0.30;;;18.40;99.90;;;;;;5116716;28;20448;-81
2021/06/04 04:38:21;;;;;;;0.30;0.30;;;18.40;99.90;;;;;;5116527;28;20896;-79
2021/06/04 04:40:50;;;;;;;0.30;0.30;;;18.40;99.90;;;;;;5117496;28;20446;-81
2021/06/04 04:43:17;;;;;;;0.20;0.20;;;18.50;99.90;;;;;;5117774;28;20584;-81
2021/06/04 04:45:45;;;;;;;0.30;0.30;;;18.50;99.90;;;;;;5118058;28;20442;-79
2021/06/04 04:48:11;;;;;;;0.23;0.23;;;18.50;99.90;;;;;;5120095;28;20799;-82
2021/06/04 04:50:39;;;;;;;0.30;0.30;;;18.70;99.90;;;;;;5120235;28;20443;-83
2021/06/04 04:53:05;;;;;;;0.30;0.30;;;18.70;99.90;;;;;;5119547;28;20460;-80
2021/06/04 04:55:35;;;;;;;0.30;0.30;;;18.70;99.90;;;;;;5120252;28;21270;-82
2021/06/04 04:58:01;;;;;;;0.30;0.30;;;18.80;99.90;;;;;;5119657;28;20481;-80
2021/06/04 05:00:28;;;;;;;0.30;0.30;;;18.90;99.90;;;;;;5117562;28;20918;-80
2021/06/04 05:02:57;;;;;;;0.30;0.30;;;19.00;99.90;;;;;;5116924;28;20451;-81
2021/06/04 05:05:26;;;;;;;0.30;0.30;;;19.10;99.90;;;;;;5116802;28;20446;-80
2021/06/04 05:07:53;;;;;;;0.30;0.30;;;19.10;99.90;;;;;;5115985;28;20977;-81
2021/06/04 05:10:19;;;;;;;1.37;1.27;;;19.20;99.90;;;;;;5116466;28;20441;-78
2021/06/04 05:12:46;;;;;;;0.30;0.30;;;19.20;99.90;;;;;;5116418;28;20461;-80
2021/06/04 05:15:15;;;;;;;0.30;0.30;;;19.30;99.90;;;;;;5116910;28;20434;-81
2021/06/04 05:17:42;;;;;;;0.30;0.30;;;19.30;99.90;;;;;;5115508;28;20482;-81
2021/06/04 05:20:11;;;;;;;0.30;0.30;;;19.40;99.90;;;;;;5116921;28;20448;-81
2021/06/04 05:22:37;;;;;;;0.83;0.83;;;19.50;99.90;;;;;;5116043;28;20461;-80
2021/06/04 05:25:05;;;;;;;2.20;2.10;;;19.70;99.90;;;;;;5116666;28;20438;-81
2021/06/04 05:27:32;;;;;;;0.40;0.30;;;19.80;99.90;;;;;;5116353;28;20437;-80
2021/06/04 05:29:58;;;;;;;0.50;0.50;;;19.90;99.90;;;;;;5115982;28;20437;-81
2021/06/04 05:32:24;;;;;;;0.40;0.30;;;20.00;99.90;;;;;;5116500;28;20477;-81
2021/06/04 05:34:51;;;;;;;0.40;0.30;;;20.00;99.90;;;;;;5116325;27;20488;-81
2021/06/04 05:37:18;;;;;;;9.00;1.43;;;20.10;99.90;;;;;;5116951;28;20437;-81
2021/06/04 05:39:45;;;;;;;0.40;0.30;;;20.10;99.90;;;;;;5116118;28;20440;-81
2021/06/04 05:42:11;;;;;;;0.40;0.30;;;20.00;99.90;;;;;;5115272;28;20507;-81
2021/06/04 05:44:38;;;;;;;0.40;0.30;;;20.00;99.90;;;;;;5115830;28;20437;-82
2021/06/04 05:47:09;;;;;;;0.40;0.30;;;20.10;99.90;;;;;;5116171;28;20456;-81
2021/06/04 05:49:36;;;;;;;0.40;0.30;;;20.10;99.90;;;;;;5116189;28;20838;-79
2021/06/04 05:52:08;;;;;;;0.40;0.30;;;20.10;99.90;;;;;;5115942;28;20540;-80
2021/06/04 05:54:37;;;;;;;0.40;0.30;;;20.10;99.90;;;;;;5108405;28;20434;-81
2021/06/04 05:57:05;;;;;;;0.40;0.30;;;20.10;99.90;;;;;;5115832;28;20441;-82
2021/06/04 05:59:31;;;;;;;0.40;0.30;;;20.10;99.90;;;;;;5117137;28;20524;-81
2021/06/04 06:01:58;;;;;;;0.40;0.30;;;20.20;99.90;;;;;;5116322;28;20446;-81
2021/06/04 06:04:25;;;;;;;0.40;0.30;;;20.30;99.90;;;;;;5116490;28;20441;-79
2021/06/04 06:06:53;;;;;;;1.47;1.40;;;20.50;99.90;;;;;;5115857;28;20521;-81
2021/06/04 06:09:20;;;;;;;0.40;0.30;;;20.70;99.90;;;;;;5116102;28;20434;-80
2021/06/04 06:11:48;;;;;;;0.40;0.30;;;20.90;99.90;;;;;;5115583;28;20460;-81
2021/06/04 06:14:15;;;;;;;0.40;0.30;;;21.10;99.90;;;;;;5116224;28;20923;-82
2021/06/04 06:16:41;;;;;;;0.40;0.30;;;21.40;99.90;;;;;;5116085;28;21006;-81
2021/06/04 06:19:09;;;;;;;0.40;0.30;;;21.80;99.90;;;;;;5117172;28;20470;-81
2021/06/04 06:21:38;;;;;;;0.40;0.30;;;22.20;99.90;;;;;;5117117;28;20434;-80
2021/06/04 06:24:05;;;;;;;0.40;0.30;;;22.50;99.90;;;;;;5116297;28;20434;-81
2021/06/04 06:26:32;;;;;;;0.40;0.30;;;22.70;99.90;;;;;;5116324;28;20430;-80
2021/06/04 06:29:01;;;;;;;0.40;0.30;;;22.70;99.90;;;;;;5116852;28;20475;-80
2021/06/04 06:31:30;;;;;;;0.40;0.30;;;22.80;99.90;;;;;;5117189;28;20445;-82
2021/06/04 06:33:57;;;;;;;0.40;0.30;;;23.00;99.90;;;;;;5117572;28;20473;-82
2021/06/04 06:36:27;;;;;;;1.13;1.03;;;23.00;99.90;;;;;;5116831;28;20442;-78
2021/06/04 06:38:54;;;;;;;0.40;0.30;;;23.20;99.90;;;;;;5116540;28;20482;-81
2021/06/04 06:41:20;;;;;;;0.50;0.40;;;23.40;99.90;;;;;;5116742;28;20445;-80
2021/06/04 06:43:48;;;;;;;0.40;0.30;;;23.70;99.90;;;;;;5116821;28;20445;-82
2021/06/04 06:46:18;;;;;;;0.40;0.30;;;23.80;99.90;;;;;;5117376;28;20442;-82
2021/06/04 06:48:44;;;;;;;0.40;0.30;;;23.90;99.90;;;;;;5116353;28;20427;-83
2021/06/04 06:51:11;;;;;;;0.40;0.30;;;23.80;99.90;;;;;;5117118;28;20448;-81
2021/06/04 06:53:39;;;;;;;0.40;0.30;;;23.70;99.90;;;;;;5116113;28;20479;-81
2021/06/04 06:56:07;;;;;;;0.40;0.30;;;23.40;99.90;;;;;;5116485;28;20430;-81
2021/06/04 06:58:34;;;;;;;0.40;0.40;;;23.50;99.90;;;;;;5116542;28;20478;-81
2021/06/04 07:01:00;;;;;;;0.40;0.30;;;23.70;99.90;;;;;;5116235;28;20800;-81
2021/06/04 07:03:29;;;;;;;0.40;0.30;;;23.80;99.90;;;;;;5116082;28;20469;-81
2021/06/04 07:05:58;;;;;;;0.40;0.30;;;24.00;99.90;;;;;;5116674;28;20447;-81
2021/06/04 07:08:24;;;;;;;0.40;0.30;;;24.10;99.90;;;;;;5115921;28;20466;-81
2021/06/04 07:10:51;;;;;;;0.40;0.30;;;24.40;99.90;;;;;;5116359;28;20445;-82
2021/06/04 07:13:24;;;;;;;0.40;0.30;;;24.60;99.90;;;;;;5117257;28;20854;-81
2021/06/04 07:15:51;;;;;;;4.10;1.53;;;24.80;99.90;;;;;;5117111;28;20418;-81
2021/06/04 07:18:17;;;;;;;0.40;0.30;;;25.20;99.90;;;;;;5116871;28;20477;-81
2021/06/04 07:20:44;;;;;;;0.40;0.30;;;25.50;99.90;;;;;;5122305;28;20437;-81
2021/06/04 07:23:12;;;;;;;0.40;0.30;;;25.60;99.90;;;;;;5116159;28;20804;-81
2021/06/04 07:25:45;;;;;;;0.40;0.30;;;25.80;99.90;;;;;;5115316;28;20445;-80
2021/06/04 07:28:12;;;;;;;0.50;0.30;;;25.70;99.90;;;;;;5116176;28;20411;-79
2021/06/04 07:30:41;;;;;;;0.40;0.30;;;25.60;99.90;;;;;;5116393;28;20443;-77
2021/06/04 07:33:11;;;;;;;0.40;0.30;;;25.80;99.90;;;;;;5116041;28;20516;-80
2021/06/04 07:35:37;;;;;;;0.50;0.30;;;26.00;99.90;;;;;;5115298;28;20919;-80
2021/06/04 07:38:06;;;;;;;0.40;0.30;;;25.70;99.90;;;;;;5114893;28;20477;-81
2021/06/04 07:40:35;;;;;;;1.70;1.60;;;25.60;99.90;;;;;;5115779;28;20447;-80
2021/06/04 07:43:04;;;;;;;0.47;0.30;;;25.70;99.90;;;;;;5116504;28;20462;-81
2021/06/04 07:45:34;;;;;;;0.40;0.30;;;25.80;99.90;;;;;;5116053;28;20434;-81
2021/06/04 07:48:01;;;;;;;0.50;0.40;;;25.70;99.90;;;;;;5115602;28;20526;-80
2021/06/04 07:50:28;;;;;;;0.40;0.30;;;25.70;99.90;;;;;;5116323;28;20498;-80
2021/06/04 07:52:54;;;;;;;2.10;1.93;;;25.70;99.90;;;;;;5115974;28;20997;-82
2021/06/04 07:55:22;;;;;;;0.50;0.30;;;25.40;99.90;;;;;;5115953;28;20935;-82
2021/06/04 07:57:48;;;;;;;0.47;0.30;;;25.00;99.90;;;;;;5115009;28;20474;-82
2021/06/04 08:00:20;;;;;;;0.40;0.30;;;25.20;99.90;;;;;;5115408;28;20935;-82
2021/06/04 08:02:46;;;;;;;0.40;0.30;;;25.50;99.90;;;;;;5116702;28;20454;-82
2021/06/04 08:05:13;;;;;;;0.47;0.30;;;25.60;99.90;;;;;;5118241;28;20442;-84
2021/06/04 08:07:41;;;;;;;0.50;0.30;;;25.80;99.90;;;;;;5123661;28;20491;-83
2021/06/04 08:10:09;;;;;;;0.47;0.30;;;25.90;99.90;;;;;;5124101;28;20442;-82
2021/06/04 08:12:38;;;;;;;0.50;0.30;;;26.10;99.90;;;;;;5126268;28;20481;-82
2021/06/04 08:15:08;;;;;;;0.50;0.30;;;26.20;99.90;;;;;;5123721;28;20457;-82
2021/06/04 08:17:34;;;;;;;0.50;0.30;;;26.50;99.90;;;;;;5124842;28;20446;-81
2021/06/04 08:20:02;;;;;;;0.50;0.30;;;27.00;99.90;;;;;;5124610;28;20442;-81
2021/06/04 08:22:29;;;;;;;0.53;0.47;;;27.10;99.90;;;;;;5133277;22;20461;-78
2021/06/04 08:24:55;;;;;;;0.50;0.40;;;27.20;99.90;;;;;;5090512;28;20439;-79
2021/06/04 08:27:21;;;;;;;0.50;0.30;;;27.10;99.90;;;;;;5095426;28;20443;-77
2021/06/04 08:29:49;;;;;;;0.50;0.30;;;27.20;99.90;;;;;;5097576;28;20439;-81
2021/06/04 08:32:16;;;;;;;0.40;0.30;;;27.20;99.90;;;;;;5096734;28;20491;-78
2021/06/04 08:34:43;;;;;;;0.70;0.70;;;27.30;99.90;;;;;;5095598;28;20446;-80
2021/06/04 08:37:09;;;;;;;0.50;0.30;;;27.00;99.90;;;;;;5080428;28;20460;-79
2021/06/04 08:39:39;;;;;;;0.50;0.30;;;26.90;99.90;;;;;;5074554;28;20977;-78
2021/06/04 08:42:40;;;;;;;0.50;0.30;;;27.20;99.90;;;;;;5075474;28;20444;-77
2021/06/04 08:45:34;;;;;;;0.50;0.30;;;27.60;99.90;;;;;;5027528;28;20445;-79
2021/06/04 08:48:08;;;;;;;0.50;0.30;;;28.10;99.90;;;;;;5072134;28;20489;-80
2021/06/04 08:50:43;;;;;;;0.50;0.30;;;28.10;99.90;;;;;;5075369;28;20439;-82
2021/06/04 08:53:19;;;;;;;0.50;0.30;;;28.00;99.90;;;;;;5070642;28;20487;-79
2021/06/04 08:55:54;;;;;;;0.43;0.30;;;28.00;99.90;;;;;;5074584;28;20447;-80
2021/06/04 08:58:36;;;;;;;0.50;0.40;;;28.20;99.90;;;;;;5074091;28;20520;-77
2021/06/04 09:01:10;;;;;;;0.40;0.30;;;28.10;99.90;;;;;;5075106;28;20825;-79
2021/06/04 09:03:39;;;;;;;0.50;0.30;;;28.10;99.90;;;;;;5075391;28;20531;-79
2021/06/04 09:06:08;;;;;;;0.50;0.30;;;28.00;99.90;;;;;;5080169;28;20436;-80
2021/06/04 09:08:39;;;;;;;0.50;0.30;;;27.90;99.90;;;;;;5087588;28;20848;-79
2021/06/04 09:11:12;;;;;;;0.50;0.30;;;28.00;99.90;;;;;;5095247;28;20424;-80
2021/06/04 09:13:39;;;;;;;0.50;0.30;;;28.00;99.90;;;;;;5094586;28;20463;-80
2021/06/04 09:16:13;;;;;;;0.50;0.30;;;28.20;99.90;;;;;;5094455;28;20455;-81
2021/06/04 09:18:46;;;;;;;0.40;0.30;;;28.50;99.90;;;;;;5100012;28;20462;-79
2021/06/04 09:21:31;;;;;;;0.50;0.30;;;29.10;99.90;;;;;;5099442;28;20420;-79
2021/06/04 09:24:00;;;;;;;0.50;0.30;;;29.40;99.90;;;;;;5098990;28;20458;-78
2021/06/04 09:26:28;;;;;;;0.40;0.30;;;29.30;99.90;;;;;;5073553;28;20817;-80
2021/06/04 09:29:14;;;;;;;0.50;0.30;;;29.00;99.90;;;;;;5073405;28;20805;-79
2021/06/04 09:31:45;;;;;;;0.40;0.30;;;28.50;99.90;;;;;;5073492;28;20436;-79
2021/06/04 09:34:16;;;;;;;0.50;0.30;;;28.40;99.90;;;;;;5073152;28;20786;-77
2021/06/04 09:36:48;;;;;;;0.50;0.50;;;27.70;99.90;;;;;;5066135;28;20827;-78
2021/06/04 09:39:22;;;;;;;0.50;0.30;;;27.70;99.90;;;;;;5070180;28;20476;-77
2021/06/04 09:41:49;;;;;;;3.37;2.67;;;27.50;99.90;;;;;;5074513;28;20805;-81
2021/06/04 09:44:25;;;;;;;0.50;0.30;;;26.70;99.90;;;;;;5074607;28;20471;-79
2021/06/04 09:46:58;;;;;;;0.50;0.30;;;26.50;99.90;;;;;;5074745;28;20424;-80
2021/06/04 09:49:45;;;;;;;0.50;0.30;;;26.70;99.90;;;;;;5075657;28;20931;-81
2021/06/04 09:52:31;;;;;;;0.50;0.30;;;26.90;99.90;;;;;;5074234;28;20498;-78
2021/06/04 09:55:14;;;;;;;0.50;0.30;;;27.20;99.90;;;;;;5072866;28;20461;-77
2021/06/04 09:58:01;;;;;;;0.50;0.30;;;27.50;99.90;;;;;;5072434;28;20646;-78
2021/06/04 10:00:32;;;;;;;0.50;0.30;;;28.00;99.90;;;;;;5073443;28;20444;-78
2021/06/04 10:03:21;;;;;;;0.50;0.30;;;28.70;99.90;;;;;;5074281;28;20483;-79
2021/06/04 10:05:48;;;;;;;0.53;0.53;;;29.20;99.90;;;;;;5077344;28;20439;-80
2021/06/04 10:08:23;;;;;;;0.50;0.30;;;29.60;99.90;;;;;;5085028;28;20805;-77
2021/06/04 10:11:05;;;;;;;0.50;0.30;;;29.60;99.90;;;;;;5093846;28;20442;-79
2021/06/04 10:13:39;;;;;;;0.50;0.30;;;29.70;99.90;;;;;;5093657;28;20470;-80
2021/06/04 10:19:22;;;;;;;1.03;1.03;;;29.70;99.90;;;;;;5062072;28;20544;-79
2021/06/04 10:21:51;;;;;;;0.50;0.43;;;30.30;99.90;;;;;;5093467;28;20419;-80
2021/06/04 10:24:29;;;;;;;0.50;0.50;;;30.60;99.90;;;;;;5093134;28;20474;-80
2021/06/04 10:26:58;;;;;;;0.50;0.30;;;30.60;99.90;;;;;;5092192;28;20428;-79
2021/06/04 10:29:25;;;;;;;1.13;0.70;;;30.40;99.90;;;;;;5092532;28;20439;-79
2021/06/04 10:31:54;;;;;;;0.60;0.57;;;30.60;99.90;;;;;;5075528;28;20448;-82
2021/06/04 10:34:59;;;;;;;0.50;0.30;;;30.20;99.90;;;;;;5073900;28;20455;-80
2021/06/04 10:37:32;;;;;;;0.50;0.30;;;29.50;99.90;;;;;;5084369;28;20445;-83
2021/06/04 10:40:07;;;;;;;0.50;0.30;;;29.50;99.90;;;;;;5094611;28;20466;-81
2021/06/04 10:42:42;;;;;;;0.50;0.30;;;29.40;99.90;;;;;;5094093;28;20463;-80
2021/06/04 10:45:19;;;;;;;2.90;2.00;;;29.60;99.90;;;;;;5093580;28;20439;-80
2021/06/04 10:48:12;;;;;;;2.00;1.13;;;29.30;99.90;;;;;;5094319;28;20466;-78
2021/06/04 10:50:41;;;;;;;0.50;0.30;;;29.20;99.90;;;;;;5093979;28;20476;-81
2021/06/04 10:53:18;;;;;;;0.80;0.77;;;28.50;99.90;;;;;;5094115;28;20867;-76
2021/06/04 10:55:53;;;;;;;0.50;0.50;;;28.10;99.90;;;;;;5093257;28;20431;-81
2021/06/04 10:58:23;;;;;;;0.50;0.30;;;28.00;99.90;;;;;;5092875;28;21025;-80
2021/06/04 11:00:55;;;;;;;0.50;0.30;;;27.90;99.90;;;;;;5082948;28;20444;-78
2021/06/04 11:03:27;;;;;;;0.50;0.30;;;28.10;99.90;;;;;;5072432;28;20456;-81
2021/06/04 11:05:56;;;;;;;0.50;0.30;;;28.30;99.90;;;;;;5076044;28;20481;-80
2021/06/04 11:08:41;;;;;;;0.50;0.30;;;28.70;99.90;;;;;;5085271;28;20432;-80
2021/06/04 11:11:18;;;;;;;0.60;0.60;;;29.10;99.90;;;;;;5091393;28;20435;-80
2021/06/04 11:13:59;;;;;;;0.50;0.30;;;29.20;99.90;;;;;;5092801;28;20456;-80
2021/06/04 11:16:37;;;;;;;0.50;0.30;;;29.20;99.90;;;;;;5092357;28;20446;-77
2021/06/04 11:19:12;;;;;;;0.50;0.30;;;29.50;99.90;;;;;;5094903;28;21037;-79
2021/06/04 11:21:42;;;;;;;0.50;0.30;;;29.80;99.90;;;;;;5097232;28;20423;-82
2021/06/04 11:24:15;;;;;;;0.87;0.87;;;29.90;99.90;;;;;;5095295;28;20557;-79
2021/06/04 11:26:44;;;;;;;0.50;0.30;;;30.20;99.90;;;;;;5094095;28;20439;-80
2021/06/04 11:29:14;;;;;;;0.87;0.87;;;30.20;97.00;;;;;;5095620;28;20427;-82
2021/06/04 11:31:56;;;;;;;0.70;0.70;;;30.10;95.60;;;;;;5098694;28;20443;-82
2021/06/04 11:34:35;;;;;;;0.50;0.30;;;30.20;99.90;;;;;;5099416;28;21023;-79
2021/06/04 11:37:03;;;;;;;0.50;0.30;;;30.20;99.90;;;;;;5082974;28;20439;-82
2021/06/04 11:39:33;;;;;;;2.60;1.37;;;30.10;97.30;;;;;;5056775;28;20469;-79
2021/06/04 11:42:05;;;;;;;0.70;0.50;;;30.40;98.70;;;;;;5060010;28;20429;-80
2021/06/04 11:44:34;;;;;;;3.50;3.40;;;30.60;93.80;;;;;;5058553;28;20452;-79
2021/06/04 11:47:38;;;;;;;0.60;0.43;;;31.50;92.40;;;;;;5058013;28;20433;-80
2021/06/04 11:50:33;;;;;;;0.50;0.30;;;31.90;88.30;;;;;;5060882;28;20425;-80
2021/06/04 11:53:29;;;;;;;0.50;0.30;;;32.30;83.30;;;;;;5059697;28;20461;-79
2021/06/04 11:55:58;;;;;;;0.50;0.40;;;32.20;83.50;;;;;;5058686;28;20453;-80
2021/06/04 11:58:46;;;;;;;0.50;0.30;;;31.80;86.70;;;;;;5058858;28;20480;-78
2021/06/04 12:01:42;;;;;;;0.40;0.30;;;31.70;89.20;;;;;;5057508;28;20441;-78
2021/06/04 12:04:12;;;;;;;0.50;0.40;;;32.30;84.00;;;;;;5060033;28;20473;-78
2021/06/04 12:06:55;;;;;;;0.50;0.30;;;32.50;86.50;;;;;;5081199;28;20444;-79
2021/06/04 12:09:44;;;;;;;0.40;0.30;;;32.30;80.80;;;;;;5095775;28;20458;-80
2021/06/04 12:13:01;;;;;;;0.40;0.30;;;32.40;78.00;;;;;;5098430;28;20435;-78
2021/06/04 12:15:45;;;;;;;0.50;0.30;;;32.50;78.90;;;;;;5054382;28;20458;-80
2021/06/04 12:18:35;;;;;;;0.40;0.30;;;33.60;76.10;;;;;;5096060;28;20485;-81
2021/06/04 12:21:02;;;;;;;0.40;0.30;;;35.00;73.40;;;;;;5096807;28;20426;-79
2021/06/04 12:23:45;;;;;;;0.40;0.30;;;35.40;67.90;;;;;;5096469;28;20553;-81
2021/06/04 12:26:30;;;;;;;0.83;0.83;;;35.30;68.10;;;;;;5096953;28;20462;-79
2021/06/04 12:28:56;;;;;;;0.40;0.30;;;35.10;71.00;;;;;;5096315;28;20514;-79
2021/06/04 12:31:48;;;;;;;0.40;0.30;;;35.10;66.00;;;;;;5096020;28;20442;-77
2021/06/04 12:34:53;;;;;;;0.40;0.30;;;35.70;68.20;;;;;;5096756;28;20511;-79
2021/06/04 12:37:35;;;;;;;0.40;0.33;;;36.20;65.20;;;;;;5085427;28;20935;-80
2021/06/04 12:40:22;;;;;;;0.70;0.70;;;37.20;60.40;;;;;;5095935;28;20527;-82
2021/06/04 12:43:15;;;;;;;1.17;1.17;;;36.10;57.70;;;;;;5095608;28;20451;-77
2021/06/04 12:45:44;;;;;;;0.40;0.40;;;35.20;59.50;;;;;;5095640;28;20441;-80
2021/06/04 12:48:19;;;;;;;0.40;0.30;;;35.30;59.40;;;;;;5095325;28;20431;-79
2021/06/04 12:50:47;;;;;;;0.40;0.30;;;35.20;59.60;;;;;;5094584;28;20415;-81
2021/06/04 12:53:21;;;;;;;0.40;0.30;;;35.10;60.00;;;;;;5095125;28;21013;-79
2021/06/04 12:55:50;;;;;;;0.60;0.40;;;35.50;63.70;;;;;;5096099;28;20445;-79
2021/06/04 12:58:25;;;;;;;0.40;0.30;;;35.70;61.80;;;;;;5095190;28;20479;-76
2021/06/04 13:00:51;;;;;;;0.50;0.50;;;35.70;64.10;;;;;;5095517;28;20850;-80
2021/06/04 13:03:26;;;;;;;1.57;1.33;;;35.60;62.60;;;;;;5095016;28;20587;-80
2021/06/04 13:05:55;;;;;;;0.40;0.30;;;35.00;64.90;;;;;;5090785;28;20439;-79
2021/06/04 13:08:28;;;;;;;0.40;0.30;;;34.30;61.40;;;;;;5086520;28;20485;-79
2021/06/04 13:10:59;;;;;;;0.80;0.80;;;33.30;65.80;;;;;;5095917;28;20797;-78
2021/06/04 13:13:30;;;;;;;0.50;0.30;;;32.30;66.50;;;;;;5095162;28;20512;-79
2021/06/04 13:15:58;;;;;;;0.50;0.30;;;31.20;70.10;;;;;;5094775;28;20446;-80
2021/06/04 13:18:26;;;;;;;0.50;0.30;;;30.90;69.90;;;;;;5094916;28;20481;-82
2021/06/04 13:20:55;;;;;;;0.50;0.30;;;31.70;75.30;;;;;;5097528;28;20439;-81
2021/06/04 13:23:26;;;;;;;1.90;1.53;;;32.40;74.70;;;;;;5096979;28;20463;-81
2021/06/04 13:26:10;;;;;;;1.90;1.80;;;33.10;66.80;;;;;;5096055;28;20423;-81
2021/06/04 13:28:40;;;;;;;0.40;0.30;;;33.70;67.60;;;;;;5093135;28;20446;-80
2021/06/04 13:31:12;;;;;;;0.40;0.30;;;34.40;68.20;;;;;;5096241;28;20443;-83
2021/06/04 13:33:45;;;;;;;0.70;0.50;;;35.10;67.60;;;;;;5095349;28;20451;-82
2021/06/04 13:36:11;;;;;;;0.40;0.30;;;35.60;65.50;;;;;;5092239;28;20431;-83
2021/06/04 13:38:45;;;;;;;0.40;0.30;;;35.90;63.30;;;;;;5088198;28;20482;-80
2021/06/04 13:41:22;;;;;;;0.60;0.60;;;36.30;64.20;;;;;;5095495;28;20870;-83
2021/06/04 13:43:50;;;;;;;0.40;0.30;;;36.50;65.90;;;;;;5095471;28;20459;-81
2021/06/04 13:46:19;;;;;;;0.40;0.30;;;36.60;61.10;;;;;;5095133;28;20453;-81
2021/06/04 13:49:00;;;;;;;1.83;1.70;;;37.30;59.80;;;;;;5095390;28;20753;-82
2021/06/04 13:51:30;;;;;;;0.50;0.30;;;35.50;60.40;;;;;;5095324;28;20427;-80
2021/06/04 13:53:59;;;;;;;0.50;0.30;;;33.00;65.50;;;;;;5094319;28;20459;-79
2021/06/04 13:56:41;;;;;;;0.40;0.30;;;33.80;68.50;;;;;;5093413;28;20471;-78
2021/06/04 13:59:27;;;;;;;0.73;0.73;;;34.60;66.90;;;;;;5091180;28;20486;-80
2021/06/04 14:01:57;;;;;;;0.47;0.30;;;34.40;64.20;;;;;;5092499;28;20448;-78
2021/06/04 14:04:33;;;;;;;0.50;0.40;;;33.00;64.90;;;;;;5093917;28;20451;-79
2021/06/04 14:06:59;;;;;;;0.77;0.77;;;32.70;68.80;;;;;;5080868;28;20493;-78
2021/06/04 14:09:33;;;;;;;0.50;0.30;;;32.30;69.80;;;;;;5093758;28;20435;-78
2021/06/04 14:12:03;;;;;;;0.50;0.30;;;31.80;72.10;;;;;;5093921;28;20439;-80
2021/06/04 14:14:34;;;;;;;0.50;0.30;;;31.50;77.20;;;;;;5094324;28;20509;-80
2021/06/04 14:17:01;;;;;;;0.50;0.30;;;31.10;76.50;;;;;;5093735;28;20444;-79
2021/06/04 14:19:31;;;;;;;0.50;0.50;;;30.80;78.80;;;;;;5093479;28;20472;-79
2021/06/04 14:21:59;;;;;;;0.50;0.30;;;30.40;81.90;;;;;;5093543;28;20466;-78
2021/06/04 14:24:53;;;;;;;0.50;0.30;;;30.10;80.10;;;;;;5094592;28;20459;-78
2021/06/04 14:27:36;;;;;;;0.50;0.30;;;30.20;87.40;;;;;;5093166;28;20420;-78
2021/06/04 14:30:20;;;;;;;0.50;0.30;;;30.30;93.90;;;;;;5093565;28;20417;-79
2021/06/04 14:33:01;;;;;;;0.50;0.30;;;30.40;99.00;;;;;;5090049;28;20813;-79
2021/06/04 14:35:38;;;;;;;0.50;0.30;;;30.40;98.20;;;;;;5085576;28;20427;-79
2021/06/04 14:38:05;;;;;;;0.50;0.30;;;30.40;95.30;;;;;;5078322;28;20845;-78
2021/06/04 14:40:34;;;;;;;0.50;0.30;;;30.00;93.60;;;;;;5093345;28;20470;-79
2021/06/04 14:43:03;;;;;;;0.40;0.30;;;30.00;95.90;;;;;;5094035;28;20451;-79
2021/06/04 14:45:29;;;;;;;0.50;0.30;;;30.10;99.90;;;;;;5093965;28;20439;-80
2021/06/04 14:47:56;;;;;;;0.50;0.30;;;30.20;99.60;;;;;;5093301;28;20439;-81
2021/06/04 14:50:26;;;;;;;0.50;0.30;;;30.50;99.30;;;;;;5093552;28;20432;-77
2021/06/04 14:52:53;;;;;;;0.50;0.30;;;31.00;96.70;;;;;;5092635;28;20475;-79
2021/06/04 14:55:22;;;;;;;0.50;0.30;;;31.40;92.80;;;;;;5093890;28;20797;-78
2021/06/04 14:57:49;;;;;;;0.50;0.30;;;31.70;88.30;;;;;;5093348;28;20449;-80
2021/06/04 15:00:17;;;;;;;0.50;0.30;;;32.20;92.30;;;;;;5092547;28;20479;-79
2021/06/04 15:02:44;;;;;;;0.50;0.30;;;32.40;84.20;;;;;;5093010;28;20463;-79
2021/06/04 15:05:14;;;;;;;0.50;0.30;;;32.50;85.40;;;;;;5093271;28;20462;-78
2021/06/04 15:07:41;;;;;;;0.50;0.30;;;32.80;86.10;;;;;;5076292;28;20436;-78
2021/06/04 15:10:11;;;;;;;1.13;0.83;;;32.50;81.40;;;;;;5090365;28;20916;-78
2021/06/04 15:12:37;;;;;;;0.70;0.70;;;32.40;81.30;;;;;;5093647;28;20454;-80
2021/06/04 15:15:08;;;;;;;0.50;0.30;;;32.10;82.60;;;;;;5092428;28;20440;-79
2021/06/04 15:17:34;;;;;;;0.50;0.30;;;31.90;82.80;;;;;;5092851;28;20435;-79
2021/06/04 15:20:00;;;;;;;0.50;0.30;;;31.90;85.80;;;;;;5092543;28;20478;-80
2021/06/04 15:22:26;;;;;;;0.60;0.60;;;32.00;91.00;;;;;;5091399;28;20439;-78
2021/06/04 15:24:53;;;;;;;0.50;0.40;;;31.00;81.10;;;;;;5092285;28;20939;-79
2021/06/04 15:27:20;;;;;;;0.50;0.30;;;30.70;84.20;;;;;;5092168;28;20438;-79
2021/06/04 15:29:47;;;;;;;1.13;1.03;;;30.20;87.70;;;;;;5092053;28;20446;-79
2021/06/04 15:32:14;;;;;;;2.23;1.63;;;30.00;90.50;;;;;;5092371;28;20435;-78
2021/06/04 15:34:40;;;;;;;0.50;0.40;;;29.70;92.70;;;;;;5092016;28;20435;-79
2021/06/04 15:37:08;;;;;;;3.67;1.23;;;29.30;96.10;;;;;;5079624;28;20439;-80
2021/06/04 15:39:34;;;;;;;0.50;0.30;;;28.80;99.90;;;;;;5084762;28;20829;-79
2021/06/04 15:42:00;;;;;;;0.50;0.30;;;28.90;99.90;;;;;;5093094;28;20439;-78
2021/06/04 15:44:27;;;;;;;0.50;0.40;;;28.50;99.90;;;;;;5093292;28;20998;-79
2021/06/04 15:46:54;;;;;;;0.50;0.30;;;28.50;99.90;;;;;;5098187;28;20475;-79
2021/06/04 15:49:22;;;;;;;0.50;0.40;;;28.50;99.90;;;;;;5092297;28;20442;-77
2021/06/04 15:51:49;;;;;;;0.50;0.50;;;28.50;99.90;;;;;;5092303;28;20442;-79
2021/06/04 15:54:15;;;;;;;2.70;2.10;;;28.30;99.90;;;;;;5092024;28;20463;-77
2021/06/04 15:56:42;;;;;;;0.63;0.63;;;27.80;99.90;;;;;;5091983;28;20446;-79
2021/06/04 15:59:08;;;;;;;0.50;0.30;;;27.80;99.90;;;;;;5092088;28;20474;-78
2021/06/04 16:01:37;;;;;;;0.50;0.30;;;27.70;99.90;;;;;;5092205;28;20813;-79
2021/06/04 16:04:04;;;;;;;0.43;0.30;;;27.70;99.90;;;;;;5092008;28;20474;-79
2021/06/04 16:06:33;;;;;;;1.13;1.13;;;27.80;99.90;;;;;;5079806;28;20779;-79
2021/06/04 16:09:00;;;;;;;0.50;0.30;;;27.90;99.90;;;;;;5083233;28;20424;-79
2021/06/04 16:11:26;;;;;;;1.80;1.70;;;27.80;99.90;;;;;;5091707;28;20462;-78
2021/06/04 16:13:53;;;;;;;0.80;0.80;;;27.50;99.90;;;;;;5091456;28;20456;-79
2021/06/04 16:16:19;;;;;;;0.50;0.30;;;27.60;99.90;;;;;;5091616;28;20439;-77
2021/06/04 16:18:46;;;;;;;0.50;0.40;;;27.70;99.90;;;;;;5092048;28;20463;-79
2021/06/04 16:21:13;;;;;;;0.50;0.30;;;27.70;99.90;;;;;;5091761;28;20830;-78
2021/06/04 16:23:41;;;;;;;0.50;0.30;;;27.60;99.90;;;;;;5091694;28;20516;-78
2021/06/04 16:26:10;;;;;;;0.50;0.40;;;27.50;99.90;;;;;;5094017;28;20443;-78
2021/06/04 16:28:37;;;;;;;0.80;0.80;;;27.60;99.90;;;;;;5094996;28;20808;-79
2021/06/04 16:31:04;;;;;;;0.50;0.30;;;27.30;99.90;;;;;;5095100;28;20473;-79